TNCB Airport Information

Runway Information
Runway 10 Length 9449 ft width 148 ft
Elevation 14 ft Threshold 0 ft Heading 92
Runway 28 Length 9449 ft Width 148 ft
Elevation 20 ft Threshold 0 ft Heading 272
Airport Frequencies
Type TWR Name TWR Frequency 118.7 MHZ
Airport Navaids
Type NDB Name Bonaire Frequency 321 KHZ
Airport Weather Information & NOTAM
ADDS - METARS form results

(1724 UTC 20 May 2018)
 
METAR text: TNCB 201655Z AUTO 11019KT 070V150 9999 // BKN017/// BKN020/// BKN024/// 30/23 Q1013 RE//
Conditions at: TNCB (BONAIRE/FLAMINGO, AN) observed 1655 UTC 20 May 2018
Temperature: 30.0°C (86°F)
Dewpoint: 23.0°C (73°F) [RH = 66%]
Pressure (altimeter): 29.91 inches Hg (1013.0 mb)
Winds: from the ESE (110 degrees) at 22 MPH (19 knots; 9.9 m/s)
Visibility: 6 or more miles (10+ km)
Ceiling: 1700 feet AGL
Clouds: broken clouds at 1700 feet AGL
broken clouds at 2000 feet AGL
broken clouds at 2400 feet AGL
Weather: no significant weather observed at this time